Terminal Aerodrome Forecast
Issued by NWS

Home | Current Version | Previous Version | Text Only | Print | Product List | Glossary On
Versions: 1 2 3 4 5 6 7 8 9 10 11 12 13 14
000
FTUS46 KSGX 261100
TAFONT
TAF
KONT 261131Z 2612/2718 VRB04KT P6SM SKC
     FM261500 VRB04KT P6SM SKC WS020/04020KT
     FM261900 VRB05KT P6SM SKC=

USA.gov is the U.S. government's official web portal to all federal, state and local government web resources and services.